Time;durP1;ratioP1;P1;durP2;ratioP2;P2;SDS_P1;SDS_P2;PMS_P1;PMS_P2;Temp;Humidity;BMP_temperature;BMP_pressure;BME280_temperature;BME280_humidity;BME280_pressure;Samples;Min_cycle;Max_cycle;Signal;HPM_P1;HPM_P2
2021/12/30 00:01:48;;;;;;;39.58;16.48;;;12.40;99.90;;;11.12;100.00;100009.06;5010097;28;20720;-82
2021/12/30 00:04:26;;;;;;;46.72;16.85;;;12.40;99.90;;;11.13;100.00;100027.09;5011424;28;20498;-80
2021/12/30 00:06:54;;;;;;;46.95;15.23;;;12.40;99.90;;;11.10;100.00;100050.13;5011541;28;20655;-81
2021/12/30 00:09:22;;;;;;;38.28;14.70;;;12.40;99.90;;;11.07;100.00;100050.50;5011478;28;20073;-81
2021/12/30 00:11:50;;;;;;;39.05;15.18;;;12.40;99.90;;;11.05;100.00;100046.31;5011239;28;20046;-81
2021/12/30 00:14:17;;;;;;;43.33;14.25;;;12.40;99.90;;;11.05;100.00;100052.59;5011343;28;20056;-81
2021/12/30 00:16:44;;;;;;;38.45;13.52;;;12.40;99.90;;;11.02;100.00;100058.44;5011235;28;20133;-80
2021/12/30 00:19:12;;;;;;;36.83;12.02;;;12.40;99.90;;;11.05;100.00;100044.41;5011216;28;20061;-80
2021/12/30 00:21:40;;;;;;;36.60;12.32;;;12.40;99.90;;;11.05;100.00;100051.75;5010529;28;20074;-82
2021/12/30 00:24:12;;;;;;;31.70;11.00;;;12.40;99.90;;;11.06;100.00;100067.03;5011397;28;20453;-79
2021/12/30 00:26:39;;;;;;;35.97;11.40;;;12.40;99.90;;;11.05;100.00;100059.94;5011021;28;20049;-79
2021/12/30 00:29:06;;;;;;;41.65;10.50;;;12.40;99.90;;;11.04;100.00;100050.94;4993359;28;20541;-80
2021/12/30 00:31:34;;;;;;;36.35;9.93;;;12.40;99.90;;;11.04;100.00;100050.06;5010587;28;20577;-80
2021/12/30 00:34:02;;;;;;;39.20;11.05;;;12.40;99.90;;;11.04;100.00;100055.50;5011035;28;20080;-80
2021/12/30 00:36:31;;;;;;;36.25;11.10;;;12.40;99.90;;;11.01;100.00;100072.25;5010840;28;20069;-80
2021/12/30 00:38:58;;;;;;;33.47;10.63;;;12.40;99.90;;;11.04;100.00;100077.28;5010834;28;20139;-81
2021/12/30 00:41:27;;;;;;;35.72;10.57;;;12.40;99.90;;;11.03;100.00;100065.56;5010449;28;20096;-80
2021/12/30 00:43:57;;;;;;;36.10;10.05;;;12.40;99.90;;;10.97;100.00;100060.94;5010762;28;20054;-80
2021/12/30 00:46:24;;;;;;;40.50;11.30;;;12.40;99.90;;;11.04;100.00;100071.84;5010996;28;20053;-81
2021/12/30 00:48:54;;;;;;;34.72;9.95;;;12.40;99.90;;;11.02;100.00;100052.16;5010694;28;20383;-81
2021/12/30 00:51:22;;;;;;;36.35;8.85;;;12.40;99.90;;;11.06;100.00;100065.19;5010317;28;20115;-80
2021/12/30 00:53:49;;;;;;;28.77;7.72;;;12.40;99.90;;;11.04;100.00;100061.81;5010750;28;20136;-80
2021/12/30 00:56:16;;;;;;;39.05;8.50;;;12.40;99.90;;;10.96;100.00;100073.66;5010795;28;20042;-81
2021/12/30 00:58:45;;;;;;;36.35;8.23;;;12.40;99.90;;;10.94;100.00;100078.47;5010964;28;20088;-80
2021/12/30 01:01:13;;;;;;;27.35;7.25;;;12.40;99.90;;;11.02;100.00;100090.25;5010343;28;20088;-80
2021/12/30 01:03:40;;;;;;;31.02;7.00;;;12.40;99.90;;;10.95;100.00;100084.78;5010678;28;20383;-80
2021/12/30 01:06:10;;;;;;;34.38;7.78;;;12.40;99.90;;;10.98;100.00;100091.72;5010564;28;20064;-81
2021/12/30 01:08:38;;;;;;;34.38;6.72;;;12.40;99.90;;;10.94;100.00;100094.81;5010626;28;20084;-80
2021/12/30 01:11:08;;;;;;;29.63;7.97;;;12.30;99.90;;;10.95;100.00;100092.94;5010265;28;20052;-80
2021/12/30 01:13:43;;;;;;;28.40;6.68;;;12.30;99.90;;;10.99;100.00;100090.69;5010587;28;20053;-80
2021/12/30 01:16:17;;;;;;;30.05;6.95;;;12.30;99.90;;;10.99;100.00;100087.97;5010525;28;20104;-81
2021/12/30 01:18:59;;;;;;;32.88;7.25;;;12.40;99.90;;;10.96;100.00;100092.72;5010432;28;20065;-81
2021/12/30 01:21:30;;;;;;;34.05;6.82;;;12.40;99.90;;;10.94;100.00;100092.09;5010153;28;20061;-83
2021/12/30 01:24:01;;;;;;;25.40;6.90;;;12.30;99.90;;;10.95;100.00;100107.41;5010638;28;20129;-81
2021/12/30 01:26:31;;;;;;;33.88;6.03;;;12.40;99.90;;;10.97;100.00;100109.94;5010182;28;20038;-80
2021/12/30 01:28:58;;;;;;;31.27;6.80;;;12.40;99.90;;;10.98;100.00;100117.03;5010574;28;20449;-80
2021/12/30 01:31:27;;;;;;;24.45;6.22;;;12.40;99.90;;;10.99;100.00;100110.56;5010070;28;20154;-80
2021/12/30 01:33:55;;;;;;;30.55;6.40;;;12.40;99.90;;;11.01;100.00;100119.38;5010268;28;20042;-80
2021/12/30 01:36:26;;;;;;;31.20;7.00;;;12.40;99.90;;;11.01;100.00;100121.28;5010080;28;20041;-80
2021/12/30 01:38:55;;;;;;;27.65;6.57;;;12.40;99.90;;;10.99;100.00;100123.34;5010184;28;20056;-81
2021/12/30 01:41:23;;;;;;;32.75;6.63;;;12.40;99.90;;;11.01;100.00;100121.28;5009737;28;20084;-80
2021/12/30 01:43:51;;;;;;;30.52;6.22;;;12.40;99.90;;;11.02;100.00;100117.50;4992335;28;20058;-81
2021/12/30 01:46:18;;;;;;;32.05;6.13;;;12.40;99.90;;;11.02;100.00;100140.13;5009783;28;20067;-80
2021/12/30 01:48:47;;;;;;;33.55;6.60;;;12.40;99.90;;;11.00;100.00;100141.38;5011079;28;20041;-80
2021/12/30 01:51:14;;;;;;;33.67;5.75;;;12.40;99.90;;;11.02;100.00;100150.19;5010108;28;20048;-81
2021/12/30 01:53:42;;;;;;;30.42;5.75;;;12.40;99.90;;;11.05;100.00;100149.78;5009976;28;20096;-80
2021/12/30 01:56:09;;;;;;;28.98;6.18;;;12.40;99.90;;;11.06;100.00;100154.19;5009734;28;20150;-80
2021/12/30 01:58:36;;;;;;;31.92;6.90;;;12.40;99.90;;;11.05;100.00;100155.25;5009699;28;20132;-80
2021/12/30 02:01:05;;;;;;;32.67;6.43;;;12.40;99.90;;;11.07;100.00;100143.09;5009327;28;20048;-81
2021/12/30 02:03:32;;;;;;;35.92;6.45;;;12.40;99.90;;;11.08;100.00;100130.31;5009581;28;20155;-80
2021/12/30 02:06:01;;;;;;;25.75;6.35;;;12.30;99.90;;;11.08;100.00;100133.03;4991180;28;20452;-81
2021/12/30 02:08:28;;;;;;;30.08;6.85;;;12.40;99.90;;;11.07;100.00;100131.38;5009566;28;20066;-80
2021/12/30 02:10:56;;;;;;;32.92;6.68;;;12.40;99.90;;;11.09;100.00;100134.75;5009180;28;20084;-81
2021/12/30 02:13:23;;;;;;;38.90;7.03;;;12.40;99.90;;;11.11;100.00;100133.50;5009238;28;20054;-80
2021/12/30 02:15:51;;;;;;;38.90;6.90;;;12.40;99.90;;;11.10;100.00;100131.81;5008934;28;20220;-80
2021/12/30 02:18:22;;;;;;;35.45;6.57;;;12.40;99.90;;;11.08;100.00;100122.16;5009323;28;20081;-80
2021/12/30 02:20:54;;;;;;;36.13;6.85;;;12.40;99.90;;;11.10;100.00;100130.97;5009288;28;20046;-80
2021/12/30 02:23:24;;;;;;;30.45;5.95;;;12.40;99.90;;;11.11;100.00;100121.75;5008590;28;20042;-80
2021/12/30 02:25:54;;;;;;;32.05;7.30;;;12.40;99.90;;;11.10;100.00;100125.50;5009162;28;20117;-80
2021/12/30 02:28:24;;;;;;;32.53;6.40;;;12.40;99.90;;;11.12;100.00;100131.63;5009252;28;20096;-80
2021/12/30 02:30:54;;;;;;;24.33;5.93;;;12.40;99.90;;;11.13;100.00;100119.69;5009275;28;20077;-80
2021/12/30 02:33:22;;;;;;;30.08;6.20;;;12.40;99.90;;;11.13;100.00;100127.84;5008929;28;20050;-80
2021/12/30 02:35:52;;;;;;;35.13;6.95;;;12.40;99.90;;;11.11;100.00;100135.38;5009267;28;20096;-81
2021/12/30 02:38:22;;;;;;;29.50;5.32;;;12.40;99.90;;;11.13;100.00;100130.56;5009108;28;20132;-80
2021/12/30 02:40:53;;;;;;;25.80;5.13;;;12.40;99.90;;;11.15;100.00;100129.31;5008942;28;20042;-81
2021/12/30 02:43:24;;;;;;;36.60;6.38;;;12.50;99.90;;;11.18;100.00;100132.72;5009236;28;20041;-81
2021/12/30 02:45:53;;;;;;;27.15;5.32;;;12.50;99.90;;;11.18;100.00;100119.94;5009183;28;20534;-80
2021/12/30 02:48:23;;;;;;;27.50;6.53;;;12.50;99.90;;;11.20;100.00;100134.19;5009187;28;20116;-80
2021/12/30 02:50:55;;;;;;;25.73;5.45;;;12.50;99.90;;;11.17;100.00;100129.13;5009010;28;20120;-81
2021/12/30 02:53:23;;;;;;;29.50;5.85;;;12.50;99.90;;;11.18;100.00;100138.16;5009073;28;20132;-81
2021/12/30 02:55:53;;;;;;;29.08;6.03;;;12.50;99.90;;;11.21;100.00;100140.47;5009218;28;20038;-80
2021/12/30 02:58:22;;;;;;;34.05;5.93;;;12.50;99.90;;;11.20;100.00;100131.47;4991109;28;20049;-80
2021/12/30 03:00:50;;;;;;;30.17;5.57;;;12.50;99.90;;;11.22;100.00;100132.13;5008778;28;20132;-80
2021/12/30 03:03:19;;;;;;;34.17;6.10;;;12.50;99.90;;;11.23;100.00;100120.19;5008440;28;20084;-81
2021/12/30 03:05:47;;;;;;;34.85;5.50;;;12.50;99.90;;;11.24;100.00;100119.13;5008438;28;20127;-80
2021/12/30 03:08:16;;;;;;;37.85;6.38;;;12.50;99.90;;;11.23;100.00;100146.56;5008961;28;20041;-80
2021/12/30 03:10:44;;;;;;;26.63;5.75;;;12.50;99.90;;;11.25;100.00;100147.22;5008666;28;20502;-80
2021/12/30 03:13:14;;;;;;;34.15;6.10;;;12.50;99.90;;;11.26;100.00;100147.03;5008603;28;20049;-80
2021/12/30 03:15:45;;;;;;;31.55;7.15;;;12.50;99.90;;;11.25;100.00;100150.81;5008646;28;20050;-81
2021/12/30 03:18:13;;;;;;;29.73;5.65;;;12.50;99.90;;;11.27;100.00;100162.34;5008588;28;20101;-80
2021/12/30 03:20:41;;;;;;;30.30;6.55;;;12.50;99.90;;;11.23;100.00;100162.91;5008564;28;20116;-80
2021/12/30 03:23:08;;;;;;;31.08;6.13;;;12.60;99.90;;;11.25;100.00;100163.56;5008460;28;20050;-81
2021/12/30 03:25:37;;;;;;;24.02;6.90;;;12.60;99.90;;;11.27;100.00;100154.16;5008601;28;20477;-80
2021/12/30 03:28:05;;;;;;;25.17;6.43;;;12.60;99.90;;;11.31;100.00;100152.72;5008566;28;20149;-81
2021/12/30 03:30:32;;;;;;;25.02;6.55;;;12.60;99.90;;;11.32;100.00;100157.13;5008315;28;20490;-80
2021/12/30 03:33:00;;;;;;;21.40;6.28;;;12.60;99.90;;;11.34;100.00;100152.31;5008213;28;20077;-80
2021/12/30 03:35:27;;;;;;;27.75;6.80;;;12.60;99.90;;;11.35;100.00;100159.47;5008679;28;20124;-81
2021/12/30 03:37:55;;;;;;;24.30;6.10;;;12.60;99.90;;;11.35;100.00;100156.72;5011823;28;20049;-81
2021/12/30 03:40:24;;;;;;;30.00;6.22;;;12.70;99.90;;;11.38;100.00;100150.03;5011742;28;20053;-80
2021/12/30 03:42:53;;;;;;;26.48;6.20;;;12.70;99.90;;;11.41;100.00;100148.81;5011683;28;20070;-80
2021/12/30 03:45:22;;;;;;;29.08;5.93;;;12.70;99.90;;;11.43;100.00;100149.44;5011738;28;20081;-80
2021/12/30 03:47:51;;;;;;;23.75;6.63;;;12.70;99.90;;;11.43;100.00;100149.44;5011868;28;20133;-81
2021/12/30 03:50:23;;;;;;;26.38;6.40;;;12.70;99.90;;;11.43;100.00;100154.91;5011696;28;20078;-81
2021/12/30 03:52:54;;;;;;;27.05;7.38;;;12.70;99.90;;;11.42;100.00;100161.38;5011441;28;20458;-80
2021/12/30 03:55:24;;;;;;;25.95;6.65;;;12.70;99.90;;;11.41;100.00;100166.00;5011637;28;20116;-80
2021/12/30 03:57:54;;;;;;;30.25;7.50;;;12.70;99.90;;;11.44;100.00;100170.19;5011407;28;20510;-80
2021/12/30 04:00:23;;;;;;;32.70;7.20;;;12.70;99.90;;;11.44;100.00;100165.59;5011506;28;20153;-80
2021/12/30 04:02:50;;;;;;;32.90;7.15;;;12.80;99.90;;;11.48;100.00;100160.56;5011249;28;20133;-80
2021/12/30 04:05:18;;;;;;;29.02;7.75;;;12.80;99.90;;;11.50;100.00;100161.25;5011516;28;20111;-81
2021/12/30 04:07:45;;;;;;;23.20;6.57;;;12.80;99.90;;;11.50;100.00;100159.34;5011275;28;20038;-80
2021/12/30 04:10:15;;;;;;;27.50;7.85;;;12.80;99.90;;;11.50;100.00;100164.81;5011069;28;20077;-81
2021/12/30 04:12:45;;;;;;;24.60;6.57;;;12.80;99.90;;;11.51;100.00;100171.09;5010455;28;20108;-81
2021/12/30 04:15:14;;;;;;;21.27;7.15;;;12.80;99.90;;;11.52;100.00;100167.34;5011205;28;20410;-81
2021/12/30 04:17:43;;;;;;;27.50;8.35;;;12.80;99.90;;;11.53;100.00;100160.81;5011247;28;20042;-80
2021/12/30 04:20:15;;;;;;;24.90;8.68;;;12.80;99.90;;;11.54;100.00;100167.97;5010666;28;20126;-80
2021/12/30 04:22:43;;;;;;;32.40;8.80;;;12.80;99.90;;;11.56;100.00;100174.06;4991155;28;20054;-80
2021/12/30 04:25:14;;;;;;;37.05;9.55;;;12.80;99.90;;;11.58;100.00;100180.16;4991523;28;20572;-80
2021/12/30 04:27:42;;;;;;;25.92;9.35;;;12.80;99.90;;;11.59;100.00;100190.00;4991306;28;20042;-80
2021/12/30 04:30:12;;;;;;;25.75;9.63;;;12.80;99.90;;;11.55;100.00;100189.56;4991263;28;20069;-80
2021/12/30 04:32:42;;;;;;;32.38;9.63;;;12.80;99.90;;;11.55;100.00;100175.09;4991038;28;20149;-80
2021/12/30 04:35:11;;;;;;;22.92;8.45;;;12.90;99.90;;;11.56;100.00;100174.06;4991212;28;20491;-81
2021/12/30 04:37:39;;;;;;;23.83;8.57;;;12.90;99.90;;;11.58;100.00;100177.44;4991035;28;20105;-81
2021/12/30 04:40:10;;;;;;;20.67;8.38;;;12.90;99.90;;;11.60;100.00;100175.34;4990952;28;20054;-81
2021/12/30 04:42:40;;;;;;;18.80;7.17;;;12.90;99.90;;;11.61;100.00;100187.91;4990812;28;20050;-81
2021/12/30 04:45:10;;;;;;;17.90;7.23;;;12.90;99.90;;;11.60;100.00;100180.78;4973585;28;20392;-81
2021/12/30 04:47:39;;;;;;;18.58;6.63;;;12.90;99.90;;;11.64;100.00;100182.06;4990443;28;20487;-81
2021/12/30 04:50:12;;;;;;;12.43;5.07;;;12.90;99.90;;;11.67;100.00;100181.69;4990864;28;20046;-80
2021/12/30 04:52:39;;;;;;;10.13;4.72;;;13.00;99.90;;;11.67;100.00;100176.22;4990665;28;20073;-80
2021/12/30 04:55:08;;;;;;;7.63;4.40;;;13.00;99.90;;;11.69;100.00;100179.59;4990920;28;20070;-80
2021/12/30 04:57:36;;;;;;;9.10;4.75;;;13.00;99.90;;;11.71;100.00;100172.06;4990844;28;20083;-80
2021/12/30 05:00:07;;;;;;;6.63;4.07;;;13.00;99.90;;;11.70;100.00;100175.81;4990707;28;20553;-80
2021/12/30 05:02:52;;;;;;;7.57;3.67;;;13.00;99.90;;;11.73;100.00;100180.88;4972645;28;20704;-80
2021/12/30 05:05:21;;;;;;;6.97;3.65;;;13.00;99.90;;;11.73;100.00;100180.88;4990584;28;20042;-80
2021/12/30 05:07:48;;;;;;;6.10;3.40;;;13.00;99.90;;;11.74;100.00;100182.53;4990393;28;20069;-80
2021/12/30 05:10:16;;;;;;;7.68;3.40;;;13.00;99.90;;;11.78;100.00;100193.06;4990506;28;20495;-80
2021/12/30 05:12:43;;;;;;;6.82;3.40;;;13.00;99.90;;;11.78;100.00;100185.72;4990180;28;20050;-80
2021/12/30 05:15:11;;;;;;;7.75;3.10;;;13.10;99.90;;;11.79;100.00;100183.84;4972858;28;20418;-80
2021/12/30 05:17:41;;;;;;;7.68;3.05;;;13.00;99.90;;;11.78;100.00;100187.63;4990468;28;20133;-80
2021/12/30 05:20:12;;;;;;;6.57;2.85;;;13.00;99.90;;;11.80;100.00;100193.69;4990334;28;20121;-80
2021/12/30 05:22:42;;;;;;;5.82;2.20;;;13.00;99.90;;;11.81;100.00;100187.22;4990120;28;20042;-80
2021/12/30 05:25:10;;;;;;;4.05;1.90;;;13.00;99.90;;;11.83;100.00;100190.59;4990280;28;20467;-80
2021/12/30 05:27:38;;;;;;;4.55;2.15;;;13.10;99.90;;;11.82;100.00;100194.34;4990175;28;20407;-80
2021/12/30 05:30:09;;;;;;;3.25;1.58;;;13.10;99.90;;;11.84;100.00;100200.44;4990294;28;20093;-80
2021/12/30 05:32:37;;;;;;;3.15;1.40;;;13.10;99.90;;;11.84;100.00;100189.53;4990036;28;20073;-80
2021/12/30 05:35:07;;;;;;;4.05;1.35;;;13.10;99.90;;;11.88;100.00;100185.34;4990224;28;20074;-80
2021/12/30 05:37:35;;;;;;;3.45;1.38;;;13.10;99.90;;;11.87;100.00;100180.97;4990078;28;20073;-80
2021/12/30 05:40:06;;;;;;;4.47;1.25;;;13.10;99.90;;;11.87;100.00;100181.78;4989699;28;20762;-80
2021/12/30 05:42:33;;;;;;;3.38;1.60;;;13.10;99.90;;;11.89;100.00;100181.59;4989960;28;20050;-80
2021/12/30 05:45:00;;;;;;;5.20;1.80;;;13.20;99.90;;;11.90;100.00;100186.06;4990081;28;20129;-80
2021/12/30 05:47:28;;;;;;;3.47;1.80;;;13.20;99.90;;;11.92;100.00;100178.50;4989909;28;20066;-80
2021/12/30 05:49:55;;;;;;;3.22;1.98;;;13.20;99.90;;;11.92;100.00;100178.50;4989843;28;20050;-80
2021/12/30 05:52:23;;;;;;;3.78;1.85;;;13.20;99.90;;;11.92;100.00;100175.78;4989866;28;20124;-80
2021/12/30 05:54:52;;;;;;;4.10;2.50;;;13.20;99.90;;;11.93;100.00;100180.16;4989914;28;20758;-81
2021/12/30 05:57:21;;;;;;;7.07;3.17;;;13.20;99.90;;;11.95;100.00;100179.97;4989887;28;20487;-81
2021/12/30 05:59:48;;;;;;;5.43;3.35;;;13.20;99.90;;;11.97;100.00;100181.44;4988997;28;20050;-81
2021/12/30 06:02:15;;;;;;;8.13;3.78;;;13.30;99.90;;;12.00;100.00;100181.06;4989647;28;20121;-81
2021/12/30 06:04:43;;;;;;;7.13;4.47;;;13.30;99.90;;;12.03;100.00;100179.78;4989982;28;20042;-80
2021/12/30 06:07:10;;;;;;;8.48;4.68;;;13.30;99.90;;;12.07;100.00;100183.81;5004382;28;20042;-80
2021/12/30 06:09:38;;;;;;;7.15;4.55;;;13.30;99.90;;;12.08;100.00;100185.50;5009337;28;20088;-80
2021/12/30 06:12:06;;;;;;;7.20;4.28;;;13.30;99.90;;;12.07;100.00;100187.41;5009172;28;20111;-80
2021/12/30 06:14:37;;;;;;;7.38;4.35;;;13.30;99.90;;;12.05;100.00;100184.03;4989058;28;20095;-80
2021/12/30 06:17:04;;;;;;;7.70;4.38;;;13.40;99.90;;;12.09;100.00;100195.38;5009327;28;20128;-80
2021/12/30 06:19:34;;;;;;;6.55;3.60;;;13.40;99.90;;;12.11;100.00;100194.13;5009142;28;20561;-80
2021/12/30 06:22:01;;;;;;;5.03;3.35;;;13.40;99.90;;;12.16;100.00;100200.84;5009055;28;20046;-80
2021/12/30 06:24:29;;;;;;;6.07;3.20;;;13.40;99.90;;;12.16;100.00;100198.13;5009269;28;20058;-80
2021/12/30 06:26:57;;;;;;;6.47;3.50;;;13.40;99.90;;;12.18;100.00;100193.31;5009331;28;20088;-80
2021/12/30 06:29:24;;;;;;;5.68;3.45;;;13.40;99.90;;;12.20;100.00;100202.13;5009508;28;20080;-80
2021/12/30 06:31:54;;;;;;;5.72;3.58;;;13.50;99.90;;;12.20;100.00;100189.31;5008945;28;20076;-80
2021/12/30 06:34:21;;;;;;;6.22;3.78;;;13.50;99.90;;;12.22;100.00;100200.91;4991602;28;20140;-80
2021/12/30 06:36:48;;;;;;;5.28;3.47;;;13.50;99.90;;;12.25;100.00;100205.09;5009153;28;20077;-80
2021/12/30 06:39:16;;;;;;;7.03;4.13;;;13.50;99.90;;;12.26;100.00;100195.84;5008988;28;20431;-80
2021/12/30 06:41:44;;;;;;;9.65;4.70;;;13.50;99.90;;;12.31;100.00;100204.28;4993710;22;20101;-86
2021/12/30 06:44:11;;;;;;;8.55;5.00;;;13.50;99.90;;;12.34;100.00;100198.41;4969721;28;20125;-86
2021/12/30 06:46:39;;;;;;;8.57;4.80;;;13.60;99.90;;;12.38;100.00;100205.16;4969774;28;20138;-86
2021/12/30 06:49:09;;;;;;;7.93;5.13;;;13.60;99.90;;;12.40;100.00;100197.59;4969795;28;20109;-86
2021/12/30 06:51:37;;;;;;;7.28;4.90;;;13.70;99.90;;;12.41;100.00;100199.25;4969507;28;20097;-86
2021/12/30 06:54:04;;;;;;;8.43;4.90;;;13.70;99.90;;;12.41;100.00;100196.53;4969853;28;20129;-86
2021/12/30 06:56:32;;;;;;;11.45;5.20;;;13.70;99.90;;;12.42;100.00;100186.47;4969667;28;20124;-86
2021/12/30 06:59:00;;;;;;;10.75;6.28;;;13.70;99.90;;;12.44;100.00;100198.88;4969757;28;20117;-86
2021/12/30 07:01:30;;;;;;;7.43;4.70;;;13.70;99.90;;;12.47;100.00;100198.47;4969274;28;20129;-86
2021/12/30 07:03:57;;;;;;;6.20;4.53;;;13.70;99.90;;;12.48;100.00;100200.13;4969626;28;20053;-87
2021/12/30 07:06:26;;;;;;;6.80;4.35;;;13.80;99.90;;;12.52;100.00;100195.94;4969618;28;20129;-87
2021/12/30 07:08:53;;;;;;;6.63;4.60;;;13.80;99.90;;;12.52;100.00;100203.28;4969626;28;20138;-86
2021/12/30 07:11:20;;;;;;;6.13;4.10;;;13.80;99.90;;;12.55;100.00;100208.34;4972482;28;20054;-86
2021/12/30 07:13:47;;;;;;;6.07;4.00;;;13.80;99.90;;;12.57;100.00;100210.88;4973322;28;20102;-86
2021/12/30 07:16:15;;;;;;;6.40;3.83;;;13.80;99.90;;;12.59;100.00;100222.44;4973239;28;20105;-86
2021/12/30 07:18:42;;;;;;;11.20;4.28;;;13.80;99.90;;;12.60;100.00;100227.66;4973140;28;20500;-86
2021/12/30 07:21:09;;;;;;;8.18;3.92;;;13.90;99.90;;;12.60;100.00;100218.66;4972873;28;20133;-86
2021/12/30 07:23:38;;;;;;;5.82;3.22;;;13.90;99.90;;;12.64;100.00;100228.97;4971579;28;20121;-86
2021/12/30 07:26:05;;;;;;;6.25;3.40;;;13.90;99.90;;;12.62;100.00;100238.41;4972985;28;20049;-86
2021/12/30 07:28:32;;;;;;;5.03;3.00;;;13.90;99.90;;;12.62;100.00;100239.25;4972931;28;20411;-86
2021/12/30 07:31:00;;;;;;;5.03;3.20;;;13.90;99.90;;;12.65;100.00;100248.91;4972881;28;20047;-86
2021/12/30 07:33:27;;;;;;;4.35;2.70;;;13.90;99.90;;;12.63;100.00;100253.75;4971623;28;20101;-87
2021/12/30 07:35:54;;;;;;;5.05;3.03;;;13.90;99.90;;;12.64;100.00;100253.53;4972681;28;20138;-86
2021/12/30 07:38:22;;;;;;;4.47;3.00;;;13.90;99.90;;;12.68;100.00;100270.38;4972871;28;20066;-86
2021/12/30 07:40:50;;;;;;;4.43;2.92;;;13.90;99.90;;;12.72;100.00;100277.09;4972589;28;20101;-86
2021/12/30 07:43:18;;;;;;;4.00;2.80;;;14.00;99.90;;;12.70;100.00;100287.38;4972558;28;20579;-86
2021/12/30 07:45:45;;;;;;;6.20;3.10;;;14.00;99.90;;;12.68;100.00;100292.22;4972647;28;20074;-86
2021/12/30 07:48:12;;;;;;;4.65;2.72;;;14.00;99.90;;;12.70;100.00;100295.56;4972605;28;20049;-86
2021/12/30 07:50:39;;;;;;;5.95;2.88;;;14.00;99.90;;;12.70;100.00;100296.41;4972453;28;20082;-86
2021/12/30 07:53:07;;;;;;;7.13;3.47;;;13.90;99.90;;;12.73;100.00;100295.13;4972388;28;20138;-86
2021/12/30 07:55:34;;;;;;;5.40;2.95;;;14.00;99.90;;;12.73;100.00;100303.34;4972497;28;20137;-86
2021/12/30 07:58:03;;;;;;;6.72;3.38;;;14.00;99.90;;;12.73;100.00;100311.53;4972460;28;20050;-87
2021/12/30 08:00:30;;;;;;;5.28;3.53;;;14.00;99.90;;;12.74;100.00;100321.41;4972442;28;20050;-86
2021/12/30 08:02:57;;;;;;;5.05;3.20;;;14.00;99.90;;;12.73;100.00;100306.06;4972076;28;20073;-87
2021/12/30 08:05:27;;;;;;;9.20;4.35;;;14.00;99.90;;;12.70;100.00;100323.72;4972439;28;20587;-87
2021/12/30 08:07:55;;;;;;;8.10;3.80;;;14.00;99.90;;;12.70;100.00;100322.88;4971774;28;20844;-86
2021/12/30 08:10:22;;;;;;;7.13;4.03;;;14.00;99.90;;;12.73;100.00;100327.06;4970757;28;20145;-86
2021/12/30 08:12:52;;;;;;;6.18;3.72;;;14.00;99.90;;;12.73;100.00;100333.38;4972035;28;20055;-86
2021/12/30 08:15:22;;;;;;;6.35;3.58;;;14.00;99.90;;;12.74;100.00;100326.88;4972287;28;20050;-86
2021/12/30 08:17:50;;;;;;;8.55;3.53;;;14.00;99.90;;;12.75;100.00;100320.34;4970482;28;20051;-87
2021/12/30 08:20:19;;;;;;;10.38;4.03;;;14.00;99.90;;;12.75;100.00;100324.97;4974712;28;20049;-86
2021/12/30 08:22:47;;;;;;;7.00;3.60;;;14.00;99.90;;;12.75;100.00;100320.34;4969636;28;20046;-86
2021/12/30 08:25:15;;;;;;;8.90;3.60;;;14.00;99.90;;;12.77;100.00;100333.81;4972160;28;20050;-86
2021/12/30 08:27:43;;;;;;;6.15;3.25;;;14.00;99.90;;;12.79;100.00;100327.09;4970518;28;20045;-86
2021/12/30 08:30:14;;;;;;;6.10;3.92;;;14.10;99.90;;;12.79;100.00;100338.00;4972141;28;20096;-87
2021/12/30 08:32:44;;;;;;;8.38;4.07;;;14.00;99.90;;;12.78;100.00;100330.06;4971690;28;20066;-86
2021/12/30 08:35:14;;;;;;;9.32;4.25;;;14.00;99.90;;;12.76;100.00;100327.50;4971931;28;20046;-86
2021/12/30 08:37:44;;;;;;;5.82;3.78;;;14.00;99.90;;;12.77;100.00;100329.19;4971948;28;20035;-86
2021/12/30 08:40:14;;;;;;;8.93;3.45;;;14.00;99.90;;;12.80;100.00;100336.16;4971681;28;20515;-87
2021/12/30 08:42:42;;;;;;;7.95;4.28;;;14.10;99.90;;;12.81;100.00;100343.28;4971457;28;20453;-86
2021/12/30 08:45:11;;;;;;;6.03;3.83;;;14.10;99.90;;;12.80;100.00;100353.38;4970384;28;20066;-87
2021/12/30 08:47:39;;;;;;;6.65;3.78;;;14.10;99.90;;;12.83;100.00;100350.25;4971767;28;20492;-87
2021/12/30 08:50:13;;;;;;;8.32;3.90;;;14.10;99.90;;;12.79;100.00;100346.19;4971667;28;20050;-86
2021/12/30 08:52:42;;;;;;;7.43;3.50;;;14.10;99.90;;;12.78;100.00;100354.63;4971391;28;20141;-86
2021/12/30 08:55:10;;;;;;;6.03;3.08;;;14.10;99.90;;;12.77;100.00;100359.22;4971639;28;20051;-87
2021/12/30 08:57:40;;;;;;;6.78;3.33;;;14.10;99.90;;;12.79;100.00;100365.31;4971490;28;20054;-86
2021/12/30 09:00:13;;;;;;;6.78;3.42;;;14.10;99.90;;;12.79;100.00;100367.22;4971470;28;20078;-87
2021/12/30 09:02:41;;;;;;;6.82;3.10;;;14.10;99.90;;;12.81;100.00;100374.19;4971199;28;20070;-87
2021/12/30 09:05:11;;;;;;;6.88;3.60;;;14.10;99.90;;;12.85;100.00;100369.13;4971387;28;20574;-87
2021/12/30 09:07:39;;;;;;;9.45;3.40;;;14.20;99.90;;;12.82;100.00;100384.03;4971393;28;20121;-86
2021/12/30 09:10:09;;;;;;;6.72;3.28;;;14.20;99.90;;;12.80;100.00;100380.69;4971177;28;20122;-86
2021/12/30 09:12:37;;;;;;;6.15;3.20;;;14.10;99.90;;;12.83;100.00;100383.00;4971070;28;20066;-87
2021/12/30 09:15:07;;;;;;;8.30;3.90;;;14.10;99.90;;;12.84;100.00;100379.22;4971254;28;20137;-87
2021/12/30 09:17:34;;;;;;;10.60;3.90;;;14.10;99.90;;;12.84;100.00;100365.56;4969865;28;20041;-86
2021/12/30 09:20:01;;;;;;;6.53;3.75;;;14.20;99.90;;;12.80;100.00;100358.81;4971109;28;20074;-86
2021/12/30 09:22:31;;;;;;;7.68;3.75;;;14.10;99.90;;;12.86;100.00;100352.53;4970719;28;20070;-87
2021/12/30 09:24:58;;;;;;;7.45;3.97;;;14.20;99.90;;;12.87;100.00;100350.66;4971067;28;20042;-87
2021/12/30 09:27:25;;;;;;;5.72;3.88;;;14.20;99.90;;;12.90;100.00;100356.56;4970974;28;20055;-87
2021/12/30 09:29:53;;;;;;;8.85;3.85;;;14.20;99.90;;;12.94;100.00;100361.63;4970708;28;20685;-86
2021/12/30 09:32:20;;;;;;;7.57;3.70;;;14.20;99.90;;;12.98;100.00;100365.63;4970497;28;20133;-87
2021/12/30 09:34:47;;;;;;;5.03;3.38;;;14.20;99.90;;;12.99;100.00;100383.72;4970574;28;20125;-87
2021/12/30 09:37:14;;;;;;;6.38;3.50;;;14.20;99.90;;;13.00;100.00;100372.56;4970502;28;20042;-87
2021/12/30 09:39:44;;;;;;;5.55;3.90;;;14.30;99.90;;;13.02;100.00;100380.56;4969187;28;20137;-87
2021/12/30 09:42:13;;;;;;;5.47;3.30;;;14.30;99.90;;;13.07;100.00;100386.25;4968873;28;20062;-86
2021/12/30 09:44:41;;;;;;;6.38;3.28;;;14.30;99.90;;;13.09;100.00;100381.44;4970582;28;20057;-87
2021/12/30 09:47:09;;;;;;;6.93;3.40;;;14.40;99.90;;;13.13;100.00;100393.63;4970505;28;20074;-86
2021/12/30 09:49:36;;;;;;;7.55;4.30;;;14.40;99.90;;;13.20;100.00;100382.72;4970347;28;20498;-86
2021/12/30 09:52:04;;;;;;;5.75;3.60;;;14.40;99.90;;;13.23;100.00;100382.31;4970171;28;20049;-85
2021/12/30 09:54:33;;;;;;;10.23;3.80;;;14.50;99.90;;;13.30;100.00;100377.75;4969113;28;20057;-84
2021/12/30 09:57:01;;;;;;;5.57;3.17;;;14.50;99.90;;;13.30;100.00;100389.50;4970377;28;20047;-85
2021/12/30 09:59:30;;;;;;;4.50;2.90;;;14.50;99.90;;;13.35;100.00;100385.34;4970365;28;20070;-84
2021/12/30 10:01:57;;;;;;;5.47;3.08;;;14.60;99.90;;;13.38;100.00;100393.13;4969940;28;20178;-84
2021/12/30 10:04:34;;;;;;;5.50;3.10;;;14.60;99.90;;;13.39;100.00;100371.03;4970306;28;20044;-84
2021/12/30 10:07:04;;;;;;;6.25;2.78;;;14.60;99.90;;;13.43;100.00;100376.94;4970493;28;20490;-85
2021/12/30 10:09:49;;;;;;;7.95;2.50;;;14.60;99.90;;;13.45;100.00;100383.88;4970145;28;20137;-85